Terminal Aerodrome Forecast
Issued by NWS Tuscon, AZ

Home | Current Version | Previous Version | Text Only | Print | Product List | Glossary On
Versions: 1 2 3 4 5 6 7 8 9 10 11 12
000
FTUS45 KTWC 251700
TAFTUS
TAF
KTUS 251722Z 2518/2618 23006KT P6SM FEW100
     FM252200 29008KT P6SM SCT100
     FM260300 21006KT P6SM BKN120
     FM260800 14007KT P6SM SCT150
     FM261600 18006KT P6SM BKN200=

USA.gov is the U.S. government's official web portal to all federal, state and local government web resources and services.